arxmliv
arxmliv build tool
 
KWARC group
LaTeXML
About
   
 

Detailed info

Back to Homepage

List of missing_macros

No. Date Filename num_warningnum_errornum_xmargok_xmargnum_xmathok_xmathMissing macros
131001 2013-03-06 04:25:50 /0412/hep-ph.0412215 320000[\abstracts]; 1 missing file[ws.sty].
131002 2013-03-06 04:25:47 /0412/hep-ph.0412232 1050000[\epsfbox, \abstracts, \epsfysize, \epsfxsize]; 1 missing file[ws.sty].
131003 2013-03-06 04:25:42 /0412/hep-ph.0412278 1550000[\Text, \SetWidth, \Photon, \SetScale, \DashLine].
131004 2013-03-06 04:25:33 /0412/hep-ph.0412160 420000[\abstracts]; 1 missing file[ws.sty].
131005 2013-03-06 04:25:31 /0412/hep-ph.0412279 510000[\theappendix].
131006 2013-03-06 04:25:24 /0412/hep-ph.0412252 520000[\abstracts]; 1 missing file[ws.sty].
131007 2013-03-06 04:25:22 /0412/hep-ph.0412207 620000[\abstracts]; 1 missing file[ws.sty].
131008 2013-03-06 04:22:50 /0412/hep-ex.0412073 220190000[\smaller, {sidewaystable}].
131009 2013-03-06 04:20:50 /0412/hep-ph.0412069 89390000[\PACSes, \TITLE, \BY, Align, {narrowtabular}, \acknowledgments, \PACSit].
131010 2013-03-06 04:18:47 /0412/hep-lat.0412008 410000[{centering}].
131011 2013-03-06 04:18:44 /0412/hep-ph.0412079 7520000[\c@ncel]; 1 missing file[graphpap.sty].
131012 2013-03-06 04:18:21 /0412/hep-ex.0412075 83170000[\SetTitle, \biography, \SetDegreeType, \SetFullName, \acknowledge, \thechapter, \SetDepartment, \thechapter@ID, \SetThesisType, \SetGradYear, \mainmatter, \backmatter, \dedication, \SetChair, \frontmatter, \@currentID, \SetGradMonth]; 1 missing file[ufth
131013 2013-03-06 04:18:14 /0412/hep-ph.0412035 20130000[\fmffreeze, {fmffile}, \fmf, \fmfipath, \fmftop, \fmfdot, \fmfiv, \fmfposition, {fmfgraph*}, \fmfleft, \fmfright, \fmfiset, \fmfi].
131014 2013-03-06 04:17:49 /0412/hep-ph.0412089 14270000[\Text, \ArrowLine, \GCirc, \SetWidth, \Photon, \GOval, \DashLine].
131015 2013-03-06 04:17:48 /0412/hep-ex.0412054 7540000[\smaller, \abstracts, \Title, \makeauthor].
131016 2013-03-06 04:17:32 /0412/gr-qc.0412130 409830000[\cyrd, \CYRYU, \cyrishrt, \CYRE, \CYRB, \CYRERY, \cyrl, \CYRISHRT, \CYRS, \CYRCH, \cyrerev, \cyrv, \CYRU, \CYRC, \cyryu, \cyrsftsn, \cyrk, \CYRL, \CYRT, \cyro, \cyrb, \cyrz, \cyrch, \cyru, \CYRSH, \cyra, \CYRK, \cyrsh, \CYRI, \CYRYA, \CYRD, \cyrf, \cyrg,
131017 2013-03-06 04:17:08 /0412/hep-ex.0412062 1410000[\smaller].
131018 2013-03-06 04:17:08 /0412/hep-lat.0412007 2140000[\vol, \reference, \headings]; 1 missing file[sussp2004.sty].
131019 2013-03-06 04:16:54 /0412/hep-ex.0412051 2110000[\smaller].
131020 2013-03-06 04:16:53 /0412/hep-ph.0412028 12170000[\fmffreeze, {fmffile}, \fmfblob, \fmfrightn, \fmf, \fmfv, \@secpenalty, {fmfgraph*}, \fmfleftn, \fmfleft, \fmfset, \fmfright]; 1 missing file[type1cm.sty].
131021 2013-03-06 04:16:48 /0412/hep-ex.0412037 1410000[\smaller].
131022 2013-03-06 04:16:47 /0412/hep-ex.0412047 2160000[\catchline, \psfig, \keywords]; 1 missing file[ws.sty].
131023 2013-03-06 04:16:43 /0412/hep-ex.0412067 410000[\smaller].
131024 2013-03-06 04:16:43 /0412/hep-lat.0412023 12630000[Align, \xymatrix, \ar]; 9 missing files[xycurve.sty, xymatrix.sty, xyline.sty, xyarrow.sty, xycmtip.sty, xycolor.sty, xyrotate.sty, xyframe.sty, xygraph.sty].
131025 2013-03-06 04:16:37 /0412/hep-lat.0412013 380000[\vol, \reference, \prd, \ie, \prl, \etal, \headings]; 1 missing file[sussp2004.sty].
131026 2013-03-06 04:16:29 /0412/hep-ex.0412070 1330000[\mr, \br, \ead].
131027 2013-03-06 04:16:22 /0412/hep-ph.0412057 2730000[\mr, \br, \ead].
131028 2013-03-06 04:16:17 /0412/hep-ex.0412065 2030000[\prelimtwo, \smaller, \prelimone].
131029 2013-03-06 04:16:17 /0412/hep-ex.0412077 540000[\mr, \e, \br, \ead].
131030 2013-03-06 04:16:17 /0412/hep-ph.0412047 170000[\slashed, \@captype, \the\@captype].
131031 2013-03-06 04:16:16 /0412/hep-ex.0412040 2120000[\smaller, \jput].
131032 2013-03-06 04:16:13 /0412/hep-lat.0412026 4430000[\includegraphics, \abstracts]; 1 missing file[ws.sty].
131033 2013-03-06 04:16:13 /0412/hep-ph.0412048 040000[\FADiagram, {feynartspicture}, \FALabel, \FAProp].
131034 2013-03-06 04:16:08 /0412/hep-ph.0412102 710000[\psfrag].
131035 2013-03-06 04:15:53 /0412/hep-ex.0412064 530000[\ack, \nonum, \ead].
131036 2013-03-06 04:15:52 /0412/hep-ph.0412034 430000[{theacknowledgments}, \layoutstyle, \classification].
131037 2013-03-06 04:15:50 /0412/hep-ex.0412068 710000[\ead].
131038 2013-03-06 04:15:50 /0412/hep-lat.0412003 020000[\layoutstyle]; 1 missing file[{aipcheck}].
131039 2013-03-06 04:15:46 /0412/hep-ph.0412009 1120000[\layoutstyle, \tablehead].
131040 2013-03-06 04:15:43 /0412/hep-ex.0412048 030000[\br, \etal, \ead].
131041 2013-03-06 04:15:41 /0412/hep-ph.0412022 040000[\epsfbox, \abstracts, \epsfxsize]; 1 missing file[ws.sty].
131042 2013-03-06 04:15:41 /0412/hep-ph.0412045 350000[\catchline, \psfig, \tbl, \keywords]; 1 missing file[ws.sty].
131043 2013-03-06 04:15:40 /0412/hep-ph.0412083 420000[\ArrowLine, \Gluon].
131044 2013-03-06 04:15:36 /0412/hep-ph.0412073 630000[\abstracts, \tbl]; 1 missing file[ws.sty].
131045 2013-03-06 04:15:31 /0412/hep-lat.0412011 120000[\layoutstyle, \classification].
131046 2013-03-06 04:15:30 /0412/hep-ph.0412037 220000[\SetInternalRegister, \layoutstyle].
131047 2013-03-06 04:15:29 /0412/hep-ph.0412007 430000[\abstracts, \Title, \makeauthor].
131048 2013-03-06 04:15:27 /0412/hep-lat.0412006 030000[{theacknowledgments}, \layoutstyle, \classification].
131049 2013-03-06 04:15:24 /0412/hep-lat.0412044 2230000[\abstracts, \Title, \makeauthor].
131050 2013-03-06 04:15:21 /0412/hep-ph.0412071 130000[\SetInternalRegister, \layoutstyle, \classification].
131051 2013-03-06 04:15:20 /0412/hep-ph.0412001 210000[\psfrag].
131052 2013-03-06 04:15:13 /0412/hep-ex.0412055 240000[\epem, \as].
131053 2013-03-06 04:15:09 /0412/hep-ph.0412036 230000[{theacknowledgments}, \layoutstyle, \classification].
131054 2013-03-06 04:15:02 /0412/hep-ph.0412023 1710000[\layoutstyle].
131055 2013-03-06 04:14:58 /0412/hep-lat.0412020 010000[\layoutstyle].
131056 2013-03-06 04:14:55 /0412/hep-ex.0412078 120000[\abstracts]; 1 missing file[ws.sty].
131057 2013-03-06 04:14:55 /0412/hep-lat.0412017 020000[\layoutstyle]; 1 missing file[mathbbol.sty].
131058 2013-03-06 04:14:53 /0412/hep-ph.0412076 1120000[\abstracts]; 1 missing file[ws.sty].
131059 2013-03-06 04:14:19 /0412/gr-qc.0412134 15910000[{subequations}].
131060 2013-03-06 04:13:26 /0412/hep-ex.0412010 1870000[\epsfbox, \abstracts, \epsfxsize]; 1 missing file[ws.sty].
131061 2013-03-06 04:13:25 /0412/hep-ex.0412032 1050000[\epsfbox, \abstracts, \epsfxsize]; 1 missing file[ws.sty].
131062 2013-03-06 04:13:23 /0412/hep-ex.0412002 1850000[\smaller, \setlength, \textheight, \textwidth].
131063 2013-03-06 04:13:16 /0412/hep-ex.0412036 110000[{turn}].
131064 2013-03-06 04:13:14 /0412/hep-ex.0412008 190000[\catchline, \psfig]; 1 missing file[ws.sty].
131065 2013-03-06 04:13:11 /0412/hep-ex.0412019 0220000[\abstracts, \epsfig].
131066 2013-03-06 04:13:07 /0412/gr-qc.0412120 010000[{centering}].
131067 2013-03-06 04:13:03 /0412/hep-ex.0412017 110000[\abstracts].
131068 2013-03-06 04:13:02 /0412/gr-qc.0412114 4730000[\theappendix].
131069 2013-03-06 04:13:01 /0412/hep-ex.0412018 010000[\address].
131070 2013-03-06 04:12:51 /0412/hep-ex.0412021 320000[\catchline]; 1 missing file[ws.sty].
131071 2013-03-06 04:12:48 /0412/hep-ex.0412014 220000[\layoutstyle, \classification].
131072 2013-03-06 04:12:47 /0412/hep-ex.0412024 020000[\ack, \ead].
131073 2013-03-06 04:12:39 /0412/hep-ex.0412009 460000[\copyrightyear, \SetInternalRegister, {theacknowledgments}, \layoutstyle, \classification]; 1 missing file[{aipcheck.tex}].
131074 2013-03-06 04:12:38 /0412/hep-ex.0412001 660000[\abstracts, \Title, \makeauthor].
131075 2013-03-06 04:12:24 /0412/hep-ex.0412035 1150000[\includegraphics, \abstracts]; 1 missing file[ws.sty].
131076 2013-03-06 04:11:46 /0412/gr-qc.0412101 2010000[\psfrag].
131077 2013-03-06 04:11:38 /0412/gr-qc.0412105 7850000[\dashline].
131078 2013-03-06 04:11:00 /0412/gr-qc.0412111 210000[\QATOP].
131079 2013-03-06 04:06:57 /0412/cs.0412045 285200000[Align, {keywords}, \makecorrespond, {theorem*}, \correspond, \infer, \protected@edef, {proof}]; 1 missing file[fac.cls].
131080 2013-03-06 04:06:29 /0412/cs.0412108 121650000[{keywords}, \stsnr, \setnumberpos, \appendices, \bstctlcite, \setwidth, Align, {comment}, {barenv}, {CD}, {proof}]; 2 missing files[bar.sty, IEEEtran.cls].
131081 2013-03-06 04:06:18 /0412/cs.0412105 66180000[\citeauthoryear, {lemma}, {theorem}, \accepted, \volume, \email, {corollary}, \submitted, \revised, \pagerange, \jdate, {proof}, {proposition}, \pubyear]; 2 missing files[tlp.cls, aopmath.sty].
131082 2013-03-06 04:06:10 /0412/cs.0412067 2030000[\proof, \nicefrac, \appendices]; 1 missing file[IEEEtran.cls].
131083 2013-03-06 04:06:01 /0412/cs.0412063 97170000[{exa}, \address, \email, \subjclass, \ellipse, {thm}, {lem}, {defi}, \dashline, {cor}, {prop}, \lmcsheading, \qed, \keywords, \blacken, \proof, {rem}]; 1 missing file[LMCS.cls].
131084 2013-03-06 04:06:01 /0412/gr-qc.0412042 109120000[Align, \xymatrix, \ar]; 9 missing files[xycurve.sty, xymatrix.sty, xyline.sty, xyarrow.sty, xycmtip.sty, xycolor.sty, xyrotate.sty, xyframe.sty, xygraph.sty].
131085 2013-03-06 04:05:41 /0412/cs.0412065 10380000[Align, \infer, \protected@edef, \Citeyear, {namedtheorem}]; 1 missing file[chicagor.sty].
131086 2013-03-06 04:05:29 /0412/cs.0412062 14210000[\Z].
131087 2013-03-06 04:05:21 /0412/cs.0412078 154480000[\theorembodyfont, \theoremstyle, \theoremsymbol, \theoremseparator].
131088 2013-03-06 04:04:46 /0412/gr-qc.0412002 2960000[\comby, \catchline, {history}, \revised, \keywords, \received].
131089 2013-03-06 04:04:43 /0412/cs.0412106 2450000[\email, \affaddr, \numberofauthors, {proof}, \alignauthor].
131090 2013-03-06 04:04:37 /0412/cs.0412048 1050000[\drawedge, \node, \gasset]; 1 missing file[tabls.sty].
131091 2013-03-06 04:04:34 /0412/cs.0412107 030000[\extrasenglish, \dateenglish, \captionsenglish].
131092 2013-03-06 04:04:31 /0412/gr-qc.0412064 2310000[\lambdabar].
131093 2013-03-06 04:04:25 /0412/cs.0412041 1580000[\citeauthoryear, \firstfoot, \permission, \category, \runningfoot, \terms, {bottomstuff}, \keywords]; 1 missing file[acmtrans2e.cls].
131094 2013-03-06 04:04:25 /0412/gr-qc.0412030 130000[\extrasenglish, \dateenglish, \captionsenglish]; 1 missing file[scrartcl.cls].
131095 2013-03-06 04:04:23 /0412/cs.0412025 0110000[\conferenceinfo, \affaddr, \numberofauthors, \terms, \alignauthor, \keywords, \crdata, \CopyrightYear, \email, \category, {proof}].
131096 2013-03-06 04:04:17 /0412/gr-qc.0412061 3210000[\psfrag].
131097 2013-03-06 04:04:13 /0412/gr-qc.0412072 8910000[\@ignoretrue].
131098 2013-03-06 04:04:09 /0412/gr-qc.0412078 030000[\htmladdnormallink].
131099 2013-03-06 04:04:06 /0412/gr-qc.0412019 020000[\abstracts]; 1 missing file[ws.sty].
131100 2013-03-06 04:04:04 /0412/cs.0412094 920000[\reals].
131101 2013-03-06 04:04:02 /0412/gr-qc.0412016 4020000[\allsectionsfont]; 1 missing file[sectsty.sty].
131102 2013-03-06 03:59:39 /0412/cs.0412015 74170000[\citeauthoryear, \qroof, \shortciteN, \Tree, \faketreewidth]; 1 missing file[qtree.sty].
131103 2013-03-06 03:58:33 /0412/cs.0412014 6130000[{pspicture}, {keywords}, \pspolygon, \psset, \rput, \psline, {proof}, \pscircle]; 1 missing file[mytrans.cls].
131104 2013-03-06 03:58:22 /0412/cond-mat.0412682 2090000[\address, \thechapter, \@currentID, \psfig, \refcite, \tbl]; 1 missing file[ws.sty].
131105 2013-03-06 03:58:20 /0412/cond-mat.0412767 18170000[\fmfpolyn, {fmffile}, {fmfgraph*}, \fmfforce, \fmf].
131106 2013-03-06 03:58:14 /0412/cs.0412008 2510000[{comment}].
131107 2013-03-06 03:58:06 /0412/cond-mat.0412610 6050000[\kword, \abst, \inst, \acknowledgments, \citen].
131108 2013-03-06 03:58:00 /0412/cond-mat.0412742 1320000[\imag, \E].
131109 2013-03-06 03:57:58 /0412/cond-mat.0412603 2250000[\kword, \abst, \inst, \recdate, \citen].
131110 2013-03-06 03:57:35 /0412/cond-mat.0412597 060000[\refaddr, \addresses, \addr].
131111 2013-03-06 03:57:29 /0412/cond-mat.0412680 420000[\authorblockN, \authorblockA]; 1 missing file[IEEEtran.cls].
131112 2013-03-06 03:57:28 /0412/cond-mat.0412602 430000[\kword, \abst, \inst].
131113 2013-03-06 03:57:23 /0412/cond-mat.0412704 050000[{PACS}, \figcaption, Align, \address]; 1 missing file[cjp.sty].
131114 2013-03-06 03:57:18 /0412/cond-mat.0412620 1510000[\psfrag].
131115 2013-03-06 03:57:16 /0412/cond-mat.0412613 030000[\extrasenglish, \dateenglish, \captionsenglish].
131116 2013-03-06 03:57:16 /0412/cond-mat.0412727 2810000[\psfrag].
131117 2013-03-06 03:57:02 /0412/cond-mat.0412645 030000[\kword, \abst, \inst].
131118 2013-03-06 03:57:02 /0412/cond-mat.0412666 090000[\psfrag].
131119 2013-03-06 03:56:56 /0412/cond-mat.0412647 1140000[\kword, \abst, \inst, \recdate].
131120 2013-03-06 03:56:49 /0412/cond-mat.0412667 020000[\PACS]; 1 missing file[size11.clo.sty].
131121 2013-03-06 03:56:48 /0412/cond-mat.0412600 610000[\a].
131122 2013-03-06 03:56:45 /0412/cond-mat.0412747 510000[\theappendix].
131123 2013-03-06 03:56:42 /0412/cond-mat.0412674 140000[\kword, \abst, \inst, \recdate].
131124 2013-03-06 03:56:39 /0412/cond-mat.0412693 030000[\kword, \abst, \inst].
131125 2013-03-06 03:56:39 /0412/cond-mat.0412736 010000[\theappendix].
131126 2013-03-06 03:56:35 /0412/cond-mat.0412662 040000[\inst, \titlerunning, \institute, \authorrunning].
131127 2013-03-06 03:56:24 /0412/cond-mat.0412649 020000[\address]; 1 missing file[report.sty].
131128 2013-03-06 03:56:19 /0412/cs.0412004 1010000[\draftcopyName].
131129 2013-03-06 03:53:04 /0412/cond-mat.0412585 15410000[\theappendix].
131130 2013-03-06 03:50:28 /0412/cond-mat.0412496 5310000[\theappendix].
131131 2013-03-06 03:49:27 /0412/cond-mat.0412586 380000[{acknowledgments}, \authors, \altaffiltext, {article}, \authoraddr, \authorrunninghead, \altaffilmark, \titlerunninghead]; 1 missing file[agu2001.cls].
131132 2013-03-06 03:49:22 /0412/cond-mat.0412482 370000[\dontprintsemicolon, \SetLine, {algorithm}, \ForEach, \BlankLine, \While].
131133 2013-03-06 03:49:15 /0412/cond-mat.0412508 1640000[\kword, \abst, \inst, \recdate].
131134 2013-03-06 03:49:14 /0412/cond-mat.0412522 540000[\kword, \abst, \inst, \mib].
131135 2013-03-06 03:49:10 /0412/cond-mat.0412487 4620000[{singlespace}, \setstretch].
131136 2013-03-06 03:49:10 /0412/cond-mat.0412566 4230000[\qcoef, \kondobar, \ec, \x, \ldB, \kT, \iu, \tT, \So, \pp, \iq, \p, \drm, \Ppro, \gammaT, \Vo, \px, \Wf, \bV, \rat, \ix, \V, \ip].
131137 2013-03-06 03:48:59 /0412/cond-mat.0412490 2820000[{singlespace}, \setstretch].
131138 2013-03-06 03:48:43 /0412/cond-mat.0412506 010000[\psfrag].
131139 2013-03-06 03:48:42 /0412/cond-mat.0412529 250000[\kword, \abst, Align, \inst, \citen].
131140 2013-03-06 03:48:41 /0412/cond-mat.0412513 2820000[\newsymbol, \grtsim].
131141 2013-03-06 03:48:39 /0412/cond-mat.0412458 2090000[\ocis, \josab, \pre, \prl, \theappendix, \address, \email, \prb, \josaa].
131142 2013-03-06 03:48:36 /0412/cond-mat.0412407 330000[\pacs, \inst, \psfrag].
131143 2013-03-06 03:48:30 /0412/cond-mat.0412431 040000[\extrasenglish, \prettyref, \dateenglish, \captionsenglish].
131144 2013-03-06 03:48:29 /0412/cond-mat.0412560 2970000[\twoimages, \@affiliation, \onefigure].
131145 2013-03-06 03:48:23 /0412/cond-mat.0412404 630000[\bibliographystyle].
131146 2013-03-06 03:48:23 /0412/cond-mat.0412462 710000[\ad].
131147 2013-03-06 03:48:16 /0412/cond-mat.0412574 4310000[\citen].
131148 2013-03-06 03:48:07 /0412/cond-mat.0412584 310000[\psfrag].
131149 2013-03-06 03:47:59 /0412/cond-mat.0412572 2230000[\address, \name]; 1 missing file[isita2004.sty].
131150 2013-03-06 03:47:57 /0412/cond-mat.0412459 310000[\address].
131151 2013-03-06 03:44:24 /0412/cond-mat.0412296 3240000[\frontmatter, \address, \mainmatter]; 1 missing file[bookstyleold.sty].
131152 2013-03-06 03:43:56 /0412/cond-mat.0412224 2020000[\frqq, \flqq].
131153 2013-03-06 03:43:02 /0412/cond-mat.0412350 2030000[\TCItag, \dint].
131154 2013-03-06 03:43:00 /0412/cond-mat.0412370 2040000[\psfrag, {psfrags}].
131155 2013-03-06 03:42:36 /0412/cond-mat.0412372 43340000[{acknowledgments}, \affil, \footnote, \articletitle, \email, {chapthebibliography}, \normallatexbib].
131156 2013-03-06 03:42:24 /0412/cond-mat.0412280 040000[\extrasenglish, \dateenglish, \captionsenglish]; 1 missing file[pslatex.sty].
131157 2013-03-06 03:42:15 /0412/cond-mat.0412217 1870000[\kword, \abst, \inst, {fullfigure}, \recdate].
131158 2013-03-06 03:42:15 /0412/cond-mat.0412274 510000[\psfrag].
131159 2013-03-06 03:42:10 /0412/cond-mat.0412230 910000[\TCItag].
131160 2013-03-06 03:42:10 /0412/cond-mat.0412234 440000[\kword, \abst, \inst, \mib].
131161 2013-03-06 03:41:58 /0412/cond-mat.0412220 6850000[\kword, \abst, \inst, \recdate, \citen].
131162 2013-03-06 03:41:57 /0412/cond-mat.0412322 040000[\@affiliation, \onefigure].
131163 2013-03-06 03:41:49 /0412/cond-mat.0412382 350000[\BoxedEPSF, \ForceWidth, \SetepsfEPSFSpecial, \HideDisplacementBoxes]; 1 missing file[BoxedEPS.tex].
131164 2013-03-06 03:41:48 /0412/cond-mat.0412379 510000[\address].
131165 2013-03-06 03:41:45 /0412/cond-mat.0412353 430000[\ad].
131166 2013-03-06 03:41:24 /0412/cond-mat.0412262 050000[\BoxedEPSF, \ForceWidth, \SetOzTeXEPSFSpecial, \HideDisplacementBoxes]; 1 missing file[BoxedEPS.tex].
131167 2013-03-06 03:41:23 /0412/cond-mat.0412291 220000[\tint]; 1 missing file[aip.sty].
131168 2013-03-06 03:41:20 /0412/cond-mat.0412216 750000[\kword, \abst, \inst, \recdate, \acknowledgement].
131169 2013-03-06 03:39:42 /0412/astro-ph.0412645 210000[\nofiles].
131170 2013-03-06 03:38:36 /0412/cond-mat.0412166 11830000[\binom, \QTATOP]; 1 missing file[sw20mitp.sty].
131171 2013-03-06 03:37:41 /0412/cond-mat.0412157 2610000[\psfrag].
131172 2013-03-06 03:36:55 /0412/cond-mat.0412101 38710000[\substack].
131173 2013-03-06 03:36:39 /0412/cond-mat.0412171 110000[\D].
131174 2013-03-06 03:36:33 /0412/cond-mat.0412190 1010000[\a].
131175 2013-03-06 03:36:11 /0412/cond-mat.0412156 850000[\@affiliation].
131176 2013-03-06 03:36:08 /0412/cond-mat.0412192 1050000[\refer, \pacs, \email, {ack}, \pagerange]; 1 missing file[ActaStyle.cls].
131177 2013-03-06 03:36:02 /0412/cond-mat.0412100 030000[\extrasenglish, \dateenglish, \captionsenglish].
131178 2013-03-06 03:31:44 /0412/astro-ph.0412704 320000[\psfig]; 1 missing file[psfig.tex].
131179 2013-03-06 03:31:21 /0412/cond-mat.0412092 2460000[\kword, \abst, \inst, \recdate, \mib, \citen].
131180 2013-03-06 03:31:01 /0412/cond-mat.0412026 3510000[\footrulewidth].
131181 2013-03-06 03:30:58 /0412/astro-ph.0412670 2150000[\affil, \reference, \plotone, {references}, \plotfiddle, \plottwo]; 1 missing file[asp2004.sty].
131182 2013-03-06 03:30:54 /0412/cond-mat.0412063 0100000[\@affiliation, \chem].
131183 2013-03-06 03:30:51 /0412/cond-mat.0412067 240000[\epsffile, \epsfxsize]; 2 missing files[subeqna.sty, jpsjbs.sty].
131184 2013-03-06 03:30:50 /0412/astro-ph.0412695 0120000[\citeauthoryear, \opencite, \surname, \institute, {opening}, {article}, \newdisplay, \email, \runningauthor, \gsim, \acknowledgements, \inlinecite].
131185 2013-03-06 03:30:45 /0412/cond-mat.0412049 020000[\unitfrac, \unit].
131186 2013-03-06 03:30:42 /0412/cond-mat.0412076 910000[{comment}].
131187 2013-03-06 03:30:29 /0412/cond-mat.0412009 140000[\address, \runninghead, \citen]; 1 missing file[jltp.sty].
131188 2013-03-06 03:30:25 /0412/astro-ph.0412679 010000[\citename].
131189 2013-03-06 03:30:24 /0412/astro-ph.0412685 010000[\citeauthoryear].
131190 2013-03-06 03:30:21 /0412/cond-mat.0412019 220000[\chem].
131191 2013-03-06 03:30:18 /0412/cond-mat.0412065 040000[\extrasenglish, \dateenglish, \captionsenglish]; 1 missing file[pslatex.sty].
131192 2013-03-06 03:30:17 /0412/cond-mat.0412043 150000[\catchline, {history}, \keywords, \received]; 1 missing file[ws.sty].
131193 2013-03-06 03:30:16 /0412/cond-mat.0412072 140000[\kword, \abst, \inst, \recdate].
131194 2013-03-06 03:23:32 /0412/astro-ph.0412558 5370000[\theappendix].
131195 2013-03-06 03:23:06 /0412/astro-ph.0412652 7070000[\ShortTitle, \email, \FullConference, \PoS, \acknowledgments, \frak, \speaker]; 1 missing file[PoS.cls].
131196 2013-03-06 03:22:54 /0412/astro-ph.0412482 030000[\psfig]; 2 missing files[apjfonts.sty, {psfig.sty}].
131197 2013-03-06 03:22:46 /0412/astro-ph.0412609 9110000[\psfrag, \psfragscanon, {psfrags}].
131198 2013-03-06 03:22:38 /0412/astro-ph.0412543 2980000[\sidebyside, \affil, \articletitle, \kluwerbib, \email, {chapthebibliography}].
131199 2013-03-06 03:22:24 /0412/astro-ph.0412509 2710000[\theappendix].
131200 2013-03-06 03:22:18 /0412/astro-ph.0412631 17180000[\apj, \citep, \pasj, \apjl, \aap, \Accepted, \email, \etal, \KeyWords, \aj, \altaffilmark, \Received, \mnras, \apjs, \FigureFile, \citet, \altaffiltext, \SetRunningHead]; 1 missing file[pasj00.cls].
<<< >>>

[0] [200] [400] [600] [800] [1000] [1200] [1400] [1600] [1800] [2000] [2200] [2400] [2600] [2800] [3000] [3200] [3400] [3600] [3800] [4000] [4200] [4400] [4600] [4800] [5000] [5200] [5400] [5600] [5800] [6000] [6200] [6400] [6600] [6800] [7000] [7200] [7400] [7600] [7800] [8000] [8200] [8400] [8600] [8800] [9000] [9200] [9400] [9600] [9800] [10000] [10200] [10400] [10600] [10800] [11000] [11200] [11400] [11600] [11800] [12000] [12200] [12400] [12600] [12800] [13000] [13200] [13400] [13600] [13800] [14000] [14200] [14400] [14600] [14800] [15000] [15200] [15400] [15600] [15800] [16000] [16200] [16400] [16600] [16800] [17000] [17200] [17400] [17600] [17800] [18000] [18200] [18400] [18600] [18800] [19000] [19200] [19400] [19600] [19800] [20000] [20200] [20400] [20600] [20800] [21000] [21200] [21400] [21600] [21800] [22000] [22200] [22400] [22600] [22800] [23000] [23200] [23400] [23600] [23800] [24000] [24200] [24400] [24600] [24800] [25000] [25200] [25400] [25600] [25800] [26000] [26200] [26400] [26600] [26800] [27000] [27200] [27400] [27600] [27800] [28000] [28200] [28400] [28600] [28800] [29000] [29200] [29400] [29600] [29800] [30000] [30200] [30400] [30600] [30800] [31000] [31200] [31400] [31600] [31800] [32000] [32200] [32400] [32600] [32800] [33000] [33200] [33400] [33600] [33800] [34000] [34200] [34400] [34600] [34800] [35000] [35200] [35400] [35600] [35800] [36000] [36200] [36400] [36600] [36800] [37000] [37200] [37400] [37600] [37800] [38000] [38200] [38400] [38600] [38800] [39000] [39200] [39400] [39600] [39800] [40000] [40200] [40400] [40600] [40800] [41000] [41200] [41400] [41600] [41800] [42000] [42200] [42400] [42600] [42800] [43000] [43200] [43400] [43600] [43800] [44000] [44200] [44400] [44600] [44800] [45000] [45200] [45400] [45600] [45800] [46000] [46200] [46400] [46600] [46800] [47000] [47200] [47400] [47600] [47800] [48000] [48200] [48400] [48600] [48800] [49000] [49200] [49400] [49600] [49800] [50000] [50200] [50400] [50600] [50800] [51000] [51200] [51400] [51600] [51800] [52000] [52200] [52400] [52600] [52800] [53000] [53200] [53400] [53600] [53800] [54000] [54200] [54400] [54600] [54800] [55000] [55200] [55400] [55600] [55800] [56000] [56200] [56400] [56600] [56800] [57000] [57200] [57400] [57600] [57800] [58000] [58200] [58400] [58600] [58800] [59000] [59200] [59400] [59600] [59800] [60000] [60200] [60400] [60600] [60800] [61000] [61200] [61400] [61600] [61800] [62000] [62200] [62400] [62600] [62800] [63000] [63200] [63400] [63600] [63800] [64000] [64200] [64400] [64600] [64800] [65000] [65200] [65400] [65600] [65800] [66000] [66200] [66400] [66600] [66800] [67000] [67200] [67400] [67600] [67800] [68000] [68200] [68400] [68600] [68800] [69000] [69200] [69400] [69600] [69800] [70000] [70200] [70400] [70600] [70800] [71000] [71200] [71400] [71600] [71800] [72000] [72200] [72400] [72600] [72800] [73000] [73200] [73400] [73600] [73800] [74000] [74200] [74400] [74600] [74800] [75000] [75200] [75400] [75600] [75800] [76000] [76200] [76400] [76600] [76800] [77000] [77200] [77400] [77600] [77800] [78000] [78200] [78400] [78600] [78800] [79000] [79200] [79400] [79600] [79800] [80000] [80200] [80400] [80600] [80800] [81000] [81200] [81400] [81600] [81800] [82000] [82200] [82400] [82600] [82800] [83000] [83200] [83400] [83600] [83800] [84000] [84200] [84400] [84600] [84800] [85000] [85200] [85400] [85600] [85800] [86000] [86200] [86400] [86600] [86800] [87000] [87200] [87400] [87600] [87800] [88000] [88200] [88400] [88600] [88800] [89000] [89200] [89400] [89600] [89800] [90000] [90200] [90400] [90600] [90800] [91000] [91200] [91400] [91600] [91800] [92000] [92200] [92400] [92600] [92800] [93000] [93200] [93400] [93600] [93800] [94000] [94200] [94400] [94600] [94800] [95000] [95200] [95400] [95600] [95800] [96000] [96200] [96400] [96600] [96800] [97000] [97200] [97400] [97600] [97800] [98000] [98200] [98400] [98600] [98800] [99000] [99200] [99400] [99600] [99800] [100000] [100200] [100400] [100600] [100800] [101000] [101200] [101400] [101600] [101800] [102000] [102200] [102400] [102600] [102800] [103000] [103200] [103400] [103600] [103800] [104000] [104200] [104400] [104600] [104800] [105000] [105200] [105400] [105600] [105800] [106000] [106200] [106400] [106600] [106800] [107000] [107200] [107400] [107600] [107800] [108000] [108200] [108400] [108600] [108800] [109000] [109200] [109400] [109600] [109800] [110000] [110200] [110400] [110600] [110800] [111000] [111200] [111400] [111600] [111800] [112000] [112200] [112400] [112600] [112800] [113000] [113200] [113400] [113600] [113800] [114000] [114200] [114400] [114600] [114800] [115000] [115200] [115400] [115600] [115800] [116000] [116200] [116400] [116600] [116800] [117000] [117200] [117400] [117600] [117800] [118000] [118200] [118400] [118600] [118800] [119000] [119200] [119400] [119600] [119800] [120000] [120200] [120400] [120600] [120800] [121000] [121200] [121400] [121600] [121800] [122000] [122200] [122400] [122600] [122800] [123000] [123200] [123400] [123600] [123800] [124000] [124200] [124400] [124600] [124800] [125000] [125200] [125400] [125600] [125800] [126000] [126200] [126400] [126600] [126800] [127000] [127200] [127400] [127600] [127800] [128000] [128200] [128400] [128600] [128800] [129000] [129200] [129400] [129600] [129800] [130000] [130200] [130400] [130600] [130800] [131000] [131200] [131400] [131600] [131800] [132000] [132200] [132400] [132600] [132800] [133000] [133200] [133400] [133600] [133800] [134000] [134200] [134400] [134600] [134800] [135000] [135200] [135400] [135600] [135800] [136000] [136200] [136400] [136600] [136800] [137000] [137200] [137400] [137600] [137800] [138000] [138200] [138400] [138600] [138800] [139000] [139200] [139400] [139600] [139800] [140000] [140200] [140400] [140600] [140800] [141000] [141200] [141400] [141600] [141800] [142000] [142200] [142400] [142600] [142800] [143000] [143200] [143400] [143600] [143800] [144000] [144200] [144400] [144600] [144800] [145000] [145200] [145400] [145600] [145800] [146000] [146200] [146400] [146600] [146800] [147000] [147200] [147400] [147600] [147800] [148000] [148200] [148400] [148600] [148800] [149000] [149200] [149400] [149600] [149800] [150000] [150200] [150400] [150600] [150800] [151000] [151200] [151400] [151600] [151800] [152000] [152200] [152400] [152600] [152800] [153000] [153200] [153400] [153600] [153800] [154000] [154200] [154400] [154600] [154800] [155000] [155200] [155400] [155600] [155800] [156000] [156200] [156400] [156600] [156800] [157000] [157200] [157400] [157600] [157800] [158000] [158200] [158400] [158600] [158800] [159000] [159200] [159400] [159600] [159800] [160000] [160200] [160400] [160600] [160800] [161000] [161200] [161400] [161600] [161800] [162000] [162200] [162400] [162600] [162800] [163000] [163200] [163400] [163600] [163800] [164000] [164200] [164400] [164600]
 
  The service has been written by
Heinrich Stamerjohanns